createdAt,value
2017-07-23T00:01:27.833Z,8.13
2017-07-23T00:03:54.833Z,6.23
2017-07-23T00:06:21.125Z,6.20
2017-07-23T00:08:47.388Z,6.23
2017-07-23T00:11:13.669Z,6.10
2017-07-23T00:13:40.665Z,5.17
2017-07-23T00:16:06.936Z,5.73
2017-07-23T00:18:33.997Z,5.47
2017-07-23T00:21:00.257Z,4.57
2017-07-23T00:23:26.529Z,8.77
2017-07-23T00:25:52.813Z,6.00
2017-07-23T00:28:19.069Z,5.57
2017-07-23T00:30:45.353Z,5.30
2017-07-23T00:33:11.609Z,5.80
2017-07-23T00:35:37.870Z,4.60
2017-07-23T00:38:04.120Z,5.60
2017-07-23T00:40:30.381Z,5.63
2017-07-23T00:42:56.664Z,5.30
2017-07-23T00:45:23.685Z,6.10
2017-07-23T00:47:49.941Z,4.50
2017-07-23T00:50:16.214Z,5.73
2017-07-23T00:52:42.474Z,5.40
2017-07-23T00:55:08.750Z,4.90
2017-07-23T00:57:35.057Z,6.60
2017-07-23T01:00:02.079Z,6.17
2017-07-23T01:02:28.336Z,6.03
2017-07-23T01:04:55.328Z,5.50
2017-07-23T01:07:22.641Z,6.57
2017-07-23T01:09:48.909Z,7.50
2017-07-23T01:12:15.165Z,6.53
2017-07-23T01:14:41.429Z,6.00
2017-07-23T01:17:07.692Z,7.13
2017-07-23T01:19:33.984Z,6.50
2017-07-23T01:22:00.250Z,6.70
2017-07-23T01:24:26.496Z,6.90
2017-07-23T01:26:52.757Z,6.30
2017-07-23T01:29:19.752Z,7.13
2017-07-23T01:31:46.033Z,8.50
2017-07-23T01:36:46.085Z,8.50
2017-07-23T01:39:12.369Z,7.30
2017-07-23T01:41:38.636Z,7.47
2017-07-23T01:44:04.922Z,8.33
2017-07-23T01:46:31.198Z,9.57
2017-07-23T01:48:57.496Z,11.00
2017-07-23T01:51:23.765Z,7.60
2017-07-23T01:53:50.040Z,7.60
2017-07-23T01:56:16.316Z,7.23
2017-07-23T01:58:42.597Z,5.90
2017-07-23T02:01:08.889Z,5.90
2017-07-23T02:03:35.213Z,6.03
2017-07-23T02:06:01.473Z,6.67
2017-07-23T02:08:27.738Z,7.13
2017-07-23T02:10:53.981Z,6.13
2017-07-23T02:13:20.260Z,7.70
2017-07-23T02:15:46.537Z,7.03
2017-07-23T02:18:12.799Z,11.03
2017-07-23T02:20:39.068Z,7.97
2017-07-23T02:23:05.312Z,7.13
2017-07-23T02:25:32.342Z,7.57
2017-07-23T02:27:58.597Z,5.43
2017-07-23T02:30:24.879Z,5.03
2017-07-23T02:32:51.161Z,6.30
2017-07-23T02:35:17.412Z,5.60
2017-07-23T02:37:43.685Z,4.97
2017-07-23T02:40:09.936Z,4.23
2017-07-23T02:42:36.929Z,4.30
2017-07-23T02:45:03.193Z,3.97
2017-07-23T02:47:29.442Z,4.20
2017-07-23T02:49:55.727Z,4.10
2017-07-23T02:52:22.025Z,3.40
2017-07-23T02:54:48.474Z,3.50
2017-07-23T02:57:14.729Z,3.57
2017-07-23T02:59:41.005Z,3.23
2017-07-23T03:02:07.275Z,3.73
2017-07-23T03:04:33.876Z,3.20
2017-07-23T03:07:00.164Z,4.20
2017-07-23T03:09:27.159Z,4.57
2017-07-23T03:11:53.414Z,2.70
2017-07-23T03:14:19.685Z,3.00
2017-07-23T03:16:46.677Z,2.97
2017-07-23T03:19:12.930Z,2.40
2017-07-23T03:21:39.177Z,3.03
2017-07-23T03:24:05.453Z,2.80
2017-07-23T03:26:31.730Z,3.07
2017-07-23T03:28:57.980Z,2.80
2017-07-23T03:31:24.241Z,4.80
2017-07-23T03:33:50.495Z,4.10
2017-07-23T03:36:16.769Z,2.67
2017-07-23T03:38:43.034Z,3.20
2017-07-23T03:41:09.310Z,3.40
2017-07-23T03:43:36.325Z,3.97
2017-07-23T03:46:02.582Z,3.00
2017-07-23T03:48:29.857Z,3.23
2017-07-23T03:50:57.161Z,3.17
2017-07-23T03:53:23.430Z,2.80
2017-07-23T03:55:49.713Z,3.40
2017-07-23T03:58:15.984Z,4.33
2017-07-23T04:00:42.267Z,4.23
2017-07-23T04:03:08.533Z,3.10
2017-07-23T04:05:35.581Z,3.40
2017-07-23T04:08:02.605Z,3.43
2017-07-23T04:10:28.865Z,3.90
2017-07-23T04:12:55.134Z,3.53
2017-07-23T04:15:21.389Z,3.70
2017-07-23T04:17:47.649Z,3.60
2017-07-23T04:20:13.933Z,4.07
2017-07-23T04:22:40.196Z,3.47
2017-07-23T04:25:06.468Z,3.93
2017-07-23T04:27:32.726Z,4.17
2017-07-23T04:29:58.990Z,3.33
2017-07-23T04:32:26.010Z,3.20
2017-07-23T04:34:52.262Z,3.63
2017-07-23T04:37:18.523Z,2.60
2017-07-23T04:39:44.781Z,3.57
2017-07-23T04:42:11.040Z,2.50
2017-07-23T04:44:38.068Z,2.47
2017-07-23T04:47:04.334Z,2.50
2017-07-23T04:49:30.633Z,1.63
2017-07-23T04:51:56.893Z,2.30
2017-07-23T04:54:23.165Z,2.00
2017-07-23T04:56:49.437Z,2.20
2017-07-23T04:59:16.452Z,2.10
2017-07-23T05:01:42.730Z,2.20
2017-07-23T05:04:08.991Z,2.13
2017-07-23T05:06:35.269Z,1.87
2017-07-23T05:09:02.345Z,1.40
2017-07-23T05:11:28.598Z,1.30
2017-07-23T05:13:54.853Z,1.57
2017-07-23T05:16:21.113Z,2.10
2017-07-23T05:18:47.377Z,2.63
2017-07-23T05:21:13.656Z,1.77
2017-07-23T05:23:40.653Z,4.57
2017-07-23T05:26:06.901Z,2.20
2017-07-23T05:28:33.177Z,1.70
2017-07-23T05:30:59.428Z,2.40
2017-07-23T05:33:25.705Z,2.33
2017-07-23T05:35:51.964Z,2.67
2017-07-23T05:38:18.220Z,4.40
2017-07-23T05:40:44.493Z,4.87
2017-07-23T05:43:10.768Z,2.70
2017-07-23T05:45:37.041Z,1.97
2017-07-23T05:48:03.297Z,2.20
2017-07-23T05:50:29.553Z,1.10
2017-07-23T05:52:55.834Z,1.60
2017-07-23T05:55:22.094Z,1.90
2017-07-23T05:57:48.368Z,1.27
2017-07-23T06:00:14.620Z,1.67
2017-07-23T06:02:40.881Z,1.50
2017-07-23T06:05:07.137Z,1.50
2017-07-23T06:07:33.402Z,2.30
2017-07-23T06:09:59.670Z,1.50
2017-07-23T06:12:25.920Z,1.40
2017-07-23T06:14:52.173Z,1.80
2017-07-23T06:17:18.425Z,1.23
2017-07-23T06:19:45.420Z,1.37
2017-07-23T06:22:11.726Z,3.63
2017-07-23T06:24:37.982Z,1.23
2017-07-23T06:27:04.233Z,1.00
2017-07-23T06:29:30.488Z,1.57
2017-07-23T06:31:57.477Z,1.67
2017-07-23T06:34:23.740Z,1.70
2017-07-23T06:36:49.997Z,2.00
2017-07-23T06:39:16.989Z,2.50
2017-07-23T06:41:43.241Z,2.40
2017-07-23T06:44:09.490Z,3.80
2017-07-23T06:46:36.849Z,2.27
2017-07-23T06:49:03.842Z,2.07
2017-07-23T06:51:30.097Z,1.87
2017-07-23T06:53:56.353Z,2.30
2017-07-23T06:56:22.610Z,2.20
2017-07-23T06:58:48.889Z,1.70
2017-07-23T07:01:15.145Z,2.27
2017-07-23T07:03:41.405Z,2.93
2017-07-23T07:06:07.661Z,2.30
2017-07-23T07:08:33.917Z,1.90
2017-07-23T07:11:00.935Z,1.90
2017-07-23T07:13:27.318Z,2.00
2017-07-23T07:15:53.568Z,2.57
2017-07-23T07:18:19.809Z,2.27
2017-07-23T07:20:46.052Z,2.17
2017-07-23T07:23:12.325Z,2.03
2017-07-23T07:25:38.590Z,2.80
2017-07-23T07:28:04.843Z,2.10
2017-07-23T07:30:31.092Z,2.40
2017-07-23T07:32:59.104Z,2.50
2017-07-23T07:35:25.393Z,4.20
2017-07-23T07:37:52.385Z,2.37
2017-07-23T07:40:18.737Z,2.30
2017-07-23T07:42:44.993Z,2.20
2017-07-23T07:45:11.990Z,2.47
2017-07-23T07:47:38.269Z,2.50
2017-07-23T07:50:05.268Z,2.80
2017-07-23T07:52:32.549Z,2.60
2017-07-23T07:54:58.800Z,2.27
2017-07-23T07:57:25.049Z,3.03
2017-07-23T07:59:52.321Z,2.40
2017-07-23T08:02:18.581Z,2.83
2017-07-23T08:04:44.856Z,3.20
2017-07-23T08:07:11.106Z,2.80
2017-07-23T08:09:37.349Z,3.07
2017-07-23T08:12:04.662Z,2.70
2017-07-23T08:14:30.917Z,3.20
2017-07-23T08:16:57.173Z,3.07
2017-07-23T08:19:23.536Z,3.00
2017-07-23T08:21:50.529Z,3.60
2017-07-23T08:24:16.813Z,3.17
2017-07-23T08:26:43.809Z,3.43
2017-07-23T08:29:10.066Z,3.90
2017-07-23T08:31:36.316Z,3.87
2017-07-23T08:34:03.297Z,4.13
2017-07-23T08:36:29.568Z,4.30
2017-07-23T08:38:55.824Z,4.33
2017-07-23T08:41:22.084Z,6.63
2017-07-23T08:43:48.333Z,4.80
2017-07-23T08:46:14.586Z,4.70
2017-07-23T08:48:40.866Z,4.60
2017-07-23T08:51:07.121Z,5.20
2017-07-23T08:53:33.368Z,3.87
2017-07-23T08:55:59.618Z,4.13
2017-07-23T08:58:25.860Z,5.00
2017-07-23T09:00:52.153Z,4.43
2017-07-23T09:03:18.400Z,6.33
2017-07-23T09:05:45.394Z,10.50
2017-07-23T09:08:11.637Z,5.03
2017-07-23T09:10:37.897Z,4.30
2017-07-23T09:13:04.917Z,6.00
2017-07-23T09:15:31.168Z,5.00
2017-07-23T09:18:04.105Z,3.93
2017-07-23T09:20:30.434Z,5.47
2017-07-23T09:22:56.689Z,5.17
2017-07-23T09:25:23.980Z,6.13
2017-07-23T09:27:51.250Z,5.13
2017-07-23T09:30:17.501Z,4.80
2017-07-23T09:32:43.762Z,7.03
2017-07-23T09:35:10.018Z,4.60
2017-07-23T09:37:36.289Z,4.50
2017-07-23T09:40:02.549Z,4.20
2017-07-23T09:42:28.810Z,4.00
2017-07-23T09:44:55.069Z,5.17
2017-07-23T09:47:21.305Z,3.97
2017-07-23T09:49:48.569Z,5.23
2017-07-23T09:52:14.852Z,4.53
2017-07-23T09:54:41.102Z,4.10
2017-07-23T09:57:07.384Z,5.50
2017-07-23T09:59:34.393Z,4.37
2017-07-23T10:02:00.647Z,5.20
2017-07-23T10:04:26.889Z,4.17
2017-07-23T10:06:53.901Z,4.20
2017-07-23T10:09:20.154Z,4.57
2017-07-23T10:11:47.140Z,4.30
2017-07-23T10:14:13.417Z,4.50
2017-07-23T10:16:39.669Z,4.87
2017-07-23T10:19:06.658Z,4.20
2017-07-23T10:21:32.940Z,4.20
2017-07-23T10:24:00.332Z,4.70
2017-07-23T10:26:26.605Z,4.87
2017-07-23T10:28:52.875Z,4.40
2017-07-23T10:31:19.157Z,4.87
2017-07-23T10:33:45.455Z,5.80
2017-07-23T10:36:14.078Z,4.10
2017-07-23T10:38:43.141Z,5.47
2017-07-23T10:41:09.393Z,4.77
2017-07-23T10:43:35.653Z,4.53
2017-07-23T10:46:02.684Z,6.60
2017-07-23T10:48:29.685Z,4.90
2017-07-23T10:50:55.937Z,5.27
2017-07-23T10:53:22.182Z,4.57
2017-07-23T10:55:48.439Z,4.40
2017-07-23T10:58:14.705Z,4.20
2017-07-23T11:00:40.961Z,6.23
2017-07-23T11:03:08.229Z,4.73
2017-07-23T11:05:35.247Z,4.20
2017-07-23T11:08:01.507Z,3.77
2017-07-23T11:10:29.741Z,4.70
2017-07-23T11:12:55.988Z,4.80
2017-07-23T11:15:22.245Z,4.53
2017-07-23T11:17:49.264Z,4.40
2017-07-23T11:20:15.509Z,7.07
2017-07-23T11:22:42.524Z,7.47
2017-07-23T11:25:08.777Z,4.70
2017-07-23T11:27:35.798Z,4.17
2017-07-23T11:30:02.517Z,4.40
2017-07-23T11:32:28.774Z,5.00
2017-07-23T11:34:55.037Z,4.10
2017-07-23T11:37:21.332Z,25.07
2017-07-23T11:39:47.587Z,5.60
2017-07-23T11:42:14.580Z,4.60
2017-07-23T11:44:40.830Z,3.90
2017-07-23T11:47:08.110Z,4.30
2017-07-23T11:49:35.113Z,4.07
2017-07-23T11:52:01.386Z,3.90
2017-07-23T11:54:28.393Z,6.60
2017-07-23T11:56:55.664Z,7.00
2017-07-23T11:59:21.958Z,4.83
2017-07-23T12:01:48.278Z,8.73
2017-07-23T12:04:14.529Z,3.93
2017-07-23T12:06:40.789Z,5.00
2017-07-23T12:09:07.967Z,4.40
2017-07-23T12:11:35.161Z,6.63
2017-07-23T12:14:02.473Z,4.70
2017-07-23T12:16:28.725Z,4.83
2017-07-23T12:18:55.061Z,4.70
2017-07-23T12:21:21.314Z,3.90
2017-07-23T12:23:48.489Z,4.57
2017-07-23T12:26:15.489Z,4.10
2017-07-23T12:28:41.761Z,4.87
2017-07-23T12:31:08.765Z,4.80
2017-07-23T12:33:35.026Z,4.10
2017-07-23T12:36:02.059Z,4.67
2017-07-23T12:38:28.329Z,5.03
2017-07-23T12:40:54.586Z,4.43
2017-07-23T12:43:20.853Z,4.90
2017-07-23T12:45:47.104Z,4.13
2017-07-23T12:48:14.158Z,5.23
2017-07-23T12:50:40.426Z,4.30
2017-07-23T12:53:06.685Z,4.73
2017-07-23T12:55:32.945Z,4.87
2017-07-23T12:57:59.205Z,4.87
2017-07-23T13:00:26.488Z,5.30
2017-07-23T13:02:52.733Z,4.60
2017-07-23T13:05:19.730Z,4.63
2017-07-23T13:07:45.970Z,5.20
2017-07-23T13:10:12.220Z,4.83
2017-07-23T13:12:38.649Z,4.50
2017-07-23T13:15:05.925Z,5.60
2017-07-23T13:17:32.929Z,4.53
2017-07-23T13:19:59.229Z,4.90
2017-07-23T13:22:25.498Z,5.10
2017-07-23T13:24:51.761Z,5.10
2017-07-23T13:27:18.777Z,6.87
2017-07-23T13:29:45.042Z,5.40
2017-07-23T13:32:11.298Z,5.87
2017-07-23T13:34:37.552Z,4.90
2017-07-23T13:37:03.834Z,4.70
2017-07-23T13:39:30.100Z,5.40
2017-07-23T13:41:56.349Z,4.77
2017-07-23T13:44:22.609Z,5.23
2017-07-23T13:46:49.606Z,4.83
2017-07-23T13:49:15.890Z,4.60
2017-07-23T13:51:42.146Z,5.13
2017-07-23T13:54:08.397Z,5.20
2017-07-23T13:56:34.657Z,4.97
2017-07-23T13:59:01.658Z,4.50
2017-07-23T14:01:27.937Z,4.87
2017-07-23T14:03:54.195Z,6.43
2017-07-23T14:06:20.446Z,4.73
2017-07-23T14:08:46.697Z,4.80
2017-07-23T14:11:12.945Z,4.67
2017-07-23T14:13:39.973Z,4.40
2017-07-23T14:16:06.226Z,4.90
2017-07-23T14:18:32.480Z,4.33
2017-07-23T14:20:58.744Z,4.90
2017-07-23T14:23:24.993Z,5.90
2017-07-23T14:25:51.253Z,4.83
2017-07-23T14:28:17.506Z,4.93
2017-07-23T14:30:43.765Z,5.03
2017-07-23T14:33:10.046Z,4.23
2017-07-23T14:35:36.302Z,4.60
2017-07-23T14:38:02.577Z,5.80
2017-07-23T14:40:28.833Z,5.70
2017-07-23T14:42:55.086Z,4.60
2017-07-23T14:45:21.332Z,5.00
2017-07-23T14:47:47.581Z,5.33
2017-07-23T14:50:13.852Z,4.30
2017-07-23T14:52:40.107Z,5.33
2017-07-23T14:55:06.361Z,4.50
2017-07-23T14:57:32.625Z,5.77
2017-07-23T14:59:58.877Z,8.60
2017-07-23T15:02:25.164Z,5.83
2017-07-23T15:04:52.181Z,6.50
2017-07-23T15:07:18.433Z,4.87
2017-07-23T15:09:45.441Z,5.23
2017-07-23T15:12:11.708Z,4.70
2017-07-23T15:14:38.014Z,4.80
2017-07-23T15:17:04.281Z,5.73
2017-07-23T15:19:31.269Z,5.50
2017-07-23T15:21:57.529Z,5.57
2017-07-23T15:24:23.801Z,5.30
2017-07-23T15:26:50.085Z,5.60
2017-07-23T15:29:16.342Z,4.97
2017-07-23T15:31:43.341Z,5.50
2017-07-23T15:34:09.626Z,5.10
2017-07-23T15:36:35.893Z,4.70
2017-07-23T15:39:02.205Z,6.10
2017-07-23T15:41:28.452Z,5.00
2017-07-23T15:43:54.699Z,4.90
2017-07-23T15:46:20.954Z,7.87
2017-07-23T15:48:47.949Z,5.33
2017-07-23T15:51:15.258Z,5.80
2017-07-23T15:53:41.508Z,5.73
2017-07-23T15:56:07.752Z,4.70
2017-07-23T15:58:34.013Z,5.30
2017-07-23T16:01:00.269Z,8.30
2017-07-23T16:03:27.409Z,6.67
2017-07-23T16:05:53.662Z,4.40
2017-07-23T16:08:19.937Z,5.33
2017-07-23T16:10:46.194Z,5.90
2017-07-23T16:13:13.192Z,5.00
2017-07-23T16:15:39.456Z,8.20
2017-07-23T16:18:06.762Z,11.20
2017-07-23T16:20:33.024Z,14.30
2017-07-23T16:22:59.263Z,6.23
2017-07-23T16:25:26.272Z,5.80
2017-07-23T16:27:52.545Z,5.80
2017-07-23T16:30:18.795Z,7.37
2017-07-23T16:32:45.046Z,5.30
2017-07-23T16:35:11.313Z,10.20
2017-07-23T16:37:37.576Z,20.60
2017-07-23T16:40:04.597Z,6.53
2017-07-23T16:42:30.878Z,7.67
2017-07-23T16:44:57.133Z,9.17
2017-07-23T16:47:23.381Z,5.67
2017-07-23T16:49:49.660Z,22.13
2017-07-23T16:52:15.913Z,6.20
2017-07-23T16:54:42.173Z,6.17
2017-07-23T16:57:09.445Z,8.60
2017-07-23T16:59:36.430Z,7.33
2017-07-23T17:02:02.673Z,23.43
2017-07-23T17:04:28.957Z,10.00
2017-07-23T17:06:55.214Z,16.00
2017-07-23T17:09:21.476Z,12.93
2017-07-23T17:11:47.730Z,7.17
2017-07-23T17:14:14.745Z,16.53
2017-07-23T17:16:41.044Z,8.27
2017-07-23T17:19:08.336Z,11.13
2017-07-23T17:21:35.651Z,9.67
2017-07-23T17:24:01.913Z,17.20
2017-07-23T17:26:28.164Z,8.47
2017-07-23T17:28:54.436Z,7.57
2017-07-23T17:31:20.685Z,12.40
2017-07-23T17:33:46.953Z,8.97
2017-07-23T17:36:13.948Z,7.70
2017-07-23T17:38:40.214Z,8.60
2017-07-23T17:41:06.512Z,6.07
2017-07-23T17:43:32.772Z,7.37
2017-07-23T17:46:05.810Z,9.07
2017-07-23T17:48:32.074Z,21.87
2017-07-23T17:50:58.320Z,8.23
2017-07-23T17:53:25.321Z,9.60
2017-07-23T17:55:51.569Z,6.30
2017-07-23T17:58:17.829Z,5.67
2017-07-23T18:00:44.828Z,10.10
2017-07-23T18:03:11.112Z,6.37
2017-07-23T18:05:37.389Z,9.23
2017-07-23T18:08:03.640Z,6.40
2017-07-23T18:10:29.892Z,5.97
2017-07-23T18:12:56.900Z,6.37
2017-07-23T18:15:23.148Z,6.40
2017-07-23T18:17:49.441Z,6.60
2017-07-23T18:20:15.698Z,7.93
2017-07-23T18:22:41.956Z,5.90
2017-07-23T18:25:08.222Z,6.50
2017-07-23T18:27:34.481Z,6.17
2017-07-23T18:30:00.752Z,5.97
2017-07-23T18:32:27.031Z,6.20
2017-07-23T18:34:53.297Z,6.13
2017-07-23T18:37:20.293Z,5.90
2017-07-23T18:39:46.570Z,7.17
2017-07-23T18:42:13.616Z,10.87
2017-07-23T18:44:39.881Z,8.80
2017-07-23T18:47:06.134Z,7.67
2017-07-23T18:49:32.500Z,8.93
2017-07-23T18:51:59.495Z,6.23
2017-07-23T18:54:25.765Z,6.93
2017-07-23T18:56:52.304Z,5.40
2017-07-23T18:59:18.607Z,10.53
2017-07-23T19:01:44.883Z,7.53
2017-07-23T19:04:11.137Z,6.80
2017-07-23T19:06:37.400Z,5.97
2017-07-23T19:09:03.709Z,6.73
2017-07-23T19:11:29.970Z,6.00
2017-07-23T19:13:56.980Z,8.30
2017-07-23T19:16:23.237Z,6.40
2017-07-23T19:18:49.528Z,5.70
2017-07-23T19:21:15.772Z,5.70
2017-07-23T19:23:42.034Z,5.83
2017-07-23T19:26:08.320Z,6.40
2017-07-23T19:28:34.600Z,6.40
2017-07-23T19:31:01.650Z,6.73
2017-07-23T19:33:27.920Z,6.07
2017-07-23T19:35:54.255Z,6.00
2017-07-23T19:38:20.525Z,6.07
2017-07-23T19:40:46.783Z,6.50
2017-07-23T19:43:13.066Z,6.57
2017-07-23T19:45:39.309Z,5.63
2017-07-23T19:48:05.576Z,6.40
2017-07-23T19:50:31.829Z,5.57
2017-07-23T19:52:58.097Z,6.13
2017-07-23T19:55:25.394Z,7.47
2017-07-23T19:57:51.641Z,6.50
2017-07-23T20:00:17.898Z,6.73
2017-07-23T20:02:44.149Z,8.90
2017-07-23T20:05:11.173Z,6.43
2017-07-23T20:07:37.454Z,6.97
2017-07-23T20:10:03.717Z,6.60
2017-07-23T20:12:29.977Z,5.93
2017-07-23T20:14:56.966Z,6.10
2017-07-23T20:17:23.245Z,7.63
2017-07-23T20:19:50.269Z,6.67
2017-07-23T20:22:16.535Z,7.00
2017-07-23T20:24:43.542Z,7.13
2017-07-23T20:27:09.801Z,6.90
2017-07-23T20:29:36.805Z,7.17
2017-07-23T20:32:04.099Z,8.07
2017-07-23T20:34:31.096Z,8.43
2017-07-23T20:36:57.361Z,7.70
2017-07-23T20:39:23.617Z,9.80
2017-07-23T20:41:49.873Z,8.90
2017-07-23T20:44:16.163Z,7.80
2017-07-23T20:46:43.169Z,7.83
2017-07-23T20:49:09.421Z,8.60
2017-07-23T20:51:35.725Z,7.43
2017-07-23T20:54:01.985Z,7.70
2017-07-23T20:56:29.017Z,7.27
2017-07-23T20:58:55.282Z,7.73
2017-07-23T21:01:21.528Z,9.80
2017-07-23T21:03:47.784Z,7.90
2017-07-23T21:06:14.044Z,8.50
2017-07-23T21:08:40.325Z,7.77
2017-07-23T21:11:06.594Z,6.70
2017-07-23T21:13:33.890Z,9.37
2017-07-23T21:16:00.138Z,7.83
2017-07-23T21:18:26.389Z,10.23
2017-07-23T21:20:52.677Z,8.27
2017-07-23T21:23:18.942Z,8.57
2017-07-23T21:25:45.223Z,9.03
2017-07-23T21:28:11.504Z,8.83
2017-07-23T21:30:37.768Z,9.80
2017-07-23T21:33:04.043Z,9.73
2017-07-23T21:35:30.296Z,9.87
2017-07-23T21:37:56.546Z,9.40
2017-07-23T21:40:23.564Z,10.03
2017-07-23T21:42:49.812Z,10.37
2017-07-23T21:45:16.100Z,9.60
2017-07-23T21:47:42.369Z,7.97
2017-07-23T21:50:08.624Z,7.77
2017-07-23T21:52:34.895Z,8.23
2017-07-23T21:55:01.157Z,8.20
2017-07-23T21:57:28.168Z,8.67
2017-07-23T21:59:54.422Z,7.80
2017-07-23T22:02:20.685Z,8.53
2017-07-23T22:04:46.949Z,9.00
2017-07-23T22:07:13.241Z,18.03
2017-07-23T22:09:39.521Z,8.80
2017-07-23T22:12:05.784Z,8.33
2017-07-23T22:14:32.792Z,8.67
2017-07-23T22:16:59.051Z,10.37
2017-07-23T22:19:26.316Z,9.07
2017-07-23T22:21:52.617Z,8.73
2017-07-23T22:24:18.893Z,10.07
2017-07-23T22:26:45.160Z,9.10
2017-07-23T22:29:12.433Z,11.37
2017-07-23T22:31:38.697Z,9.00
2017-07-23T22:34:04.977Z,8.60
2017-07-23T22:36:31.268Z,8.50
2017-07-23T22:38:57.534Z,8.90
2017-07-23T22:41:23.792Z,9.30
2017-07-23T22:43:50.777Z,8.30
2017-07-23T22:46:17.061Z,10.20
2017-07-23T22:48:43.329Z,10.20
2017-07-23T22:51:09.597Z,8.53
2017-07-23T22:53:35.889Z,12.17
2017-07-23T22:56:02.177Z,9.43
2017-07-23T22:58:30.208Z,8.90
2017-07-23T23:00:56.460Z,8.57
2017-07-23T23:03:22.724Z,8.77
2017-07-23T23:05:48.980Z,10.53
2017-07-23T23:08:15.248Z,8.37
2017-07-23T23:10:41.534Z,10.23
2017-07-23T23:13:07.796Z,10.93
2017-07-23T23:15:34.060Z,8.57
2017-07-23T23:18:00.346Z,8.43
2017-07-23T23:20:26.601Z,9.07
2017-07-23T23:22:52.932Z,9.30
2017-07-23T23:25:19.222Z,9.80
2017-07-23T23:27:45.480Z,9.23
2017-07-23T23:30:11.746Z,9.27
2017-07-23T23:32:38.046Z,9.10
2017-07-23T23:35:04.300Z,10.43
2017-07-23T23:37:30.560Z,10.20
2017-07-23T23:39:56.858Z,9.03
2017-07-23T23:42:23.109Z,9.10
2017-07-23T23:44:49.404Z,10.20
2017-07-23T23:47:16.392Z,10.23
2017-07-23T23:49:42.654Z,8.50
2017-07-23T23:52:08.947Z,8.60
2017-07-23T23:54:35.209Z,8.97
2017-07-23T23:57:01.467Z,9.73
2017-07-23T23:59:27.751Z,9.33
